Terminal Aerodrome Forecast
Issued by NWS

Current Version | Previous Version | Graphics & Text | Print | Product List | Glossary On
Versions: 1 2 3 4 5 6 7 8 9 10 11 12 13 14 15 16 17 18 19 20 21 22 23 24 25 26 27 28 29 30 31 32
000
FTUS41 KRNK 281734
TAFLWB
TAF
KLWB 281734Z 2818/2918 23005KT P6SM -RA SCT010 BKN070 OVC080
     FM282300 29003KT 3SM -RADZ SCT005 OVC012
     FM290600 00000KT 2SM -DZ BR OVC005
     FM290900 04003KT 5SM BR OVC012=

USA.gov is the U.S. government's official web portal to all federal, state and local government web resources and services.